Alpha, New Jersey
Current Conditions -  °F | °C
As of 2:51 AM on Tuesday 21 Oct 2014 (Local Time) from KABE Reporting Station
Light Rain Light Rain  
Wind Chill: 11°   Ceiling: 7000
Heat Index: 11°   Visibility: 7mi
Dew Point:   Wind: 3mph
Humidity: 89%   Direction: 310°NW
Pressure: 29.91"   Gusts: NA
Location:  40.7083°N, 75.1472°W
Report Text: KABE 210651Z AUTO 31003KT 7SM -RA BKN070 OVC080 11/09 A2991 RMK AO2 RAE10B38 SLP130 P0000 T01060089 TSNO
Loading
Personal Weather Stations






























Interactive Weather Map New forecast layout! Learn more

10-Day Weather Forecast

Advertisements
Track Severe Weather on mobile